sensor_id;sensor_type;location;lat;lon;timestamp;P1;durP1;ratioP1;P2;durP2;ratioP2
735;SDS011;352;48.626;9.238;2023-05-31T00:01:13;4.80;;;2.93;;
735;SDS011;352;48.626;9.238;2023-05-31T00:03:40;3.87;;;2.93;;
735;SDS011;352;48.626;9.238;2023-05-31T00:06:08;4.07;;;2.93;;
735;SDS011;352;48.626;9.238;2023-05-31T00:08:36;3.20;;;2.90;;
735;SDS011;352;48.626;9.238;2023-05-31T00:11:03;3.40;;;2.70;;
735;SDS011;352;48.626;9.238;2023-05-31T00:13:31;3.37;;;2.93;;
735;SDS011;352;48.626;9.238;2023-05-31T00:15:58;8.20;;;3.60;;
735;SDS011;352;48.626;9.238;2023-05-31T00:18:25;4.80;;;2.93;;
735;SDS011;352;48.626;9.238;2023-05-31T00:20:52;4.27;;;3.07;;
735;SDS011;352;48.626;9.238;2023-05-31T00:23:18;3.60;;;2.63;;
735;SDS011;352;48.626;9.238;2023-05-31T00:25:46;4.43;;;3.23;;
735;SDS011;352;48.626;9.238;2023-05-31T00:28:13;5.13;;;3.63;;
735;SDS011;352;48.626;9.238;2023-05-31T00:30:40;3.97;;;3.37;;
735;SDS011;352;48.626;9.238;2023-05-31T00:33:07;6.40;;;3.20;;
735;SDS011;352;48.626;9.238;2023-05-31T00:35:34;5.70;;;3.27;;
735;SDS011;352;48.626;9.238;2023-05-31T00:38:01;5.10;;;3.30;;
735;SDS011;352;48.626;9.238;2023-05-31T00:40:30;3.80;;;2.63;;
735;SDS011;352;48.626;9.238;2023-05-31T00:42:58;6.70;;;3.03;;
735;SDS011;352;48.626;9.238;2023-05-31T00:45:25;2.97;;;2.63;;
735;SDS011;352;48.626;9.238;2023-05-31T00:47:53;5.50;;;3.33;;
735;SDS011;352;48.626;9.238;2023-05-31T00:50:20;4.60;;;3.10;;
735;SDS011;352;48.626;9.238;2023-05-31T00:52:48;3.47;;;2.70;;
735;SDS011;352;48.626;9.238;2023-05-31T00:55:17;9.40;;;3.00;;
735;SDS011;352;48.626;9.238;2023-05-31T00:57:44;5.87;;;3.63;;
735;SDS011;352;48.626;9.238;2023-05-31T01:00:13;3.97;;;3.03;;
735;SDS011;352;48.626;9.238;2023-05-31T01:02:41;4.90;;;3.27;;
735;SDS011;352;48.626;9.238;2023-05-31T01:05:08;6.70;;;3.03;;
735;SDS011;352;48.626;9.238;2023-05-31T01:07:35;4.03;;;3.03;;
735;SDS011;352;48.626;9.238;2023-05-31T01:10:03;3.40;;;3.10;;
735;SDS011;352;48.626;9.238;2023-05-31T01:12:34;5.43;;;3.33;;
735;SDS011;352;48.626;9.238;2023-05-31T01:15:08;4.47;;;2.43;;
735;SDS011;352;48.626;9.238;2023-05-31T01:17:42;4.53;;;2.70;;
735;SDS011;352;48.626;9.238;2023-05-31T01:20:16;5.03;;;2.73;;
735;SDS011;352;48.626;9.238;2023-05-31T01:23:00;3.53;;;3.23;;
735;SDS011;352;48.626;9.238;2023-05-31T01:28:25;3.33;;;3.00;;
735;SDS011;352;48.626;9.238;2023-05-31T01:30:52;7.13;;;2.70;;
735;SDS011;352;48.626;9.238;2023-05-31T01:33:21;3.20;;;2.93;;
735;SDS011;352;48.626;9.238;2023-05-31T01:35:48;3.20;;;2.90;;
735;SDS011;352;48.626;9.238;2023-05-31T01:38:15;5.67;;;3.83;;
735;SDS011;352;48.626;9.238;2023-05-31T01:40:42;4.40;;;3.33;;
735;SDS011;352;48.626;9.238;2023-05-31T01:43:09;3.13;;;2.80;;
735;SDS011;352;48.626;9.238;2023-05-31T01:45:38;3.77;;;3.20;;
735;SDS011;352;48.626;9.238;2023-05-31T01:48:06;2.80;;;2.60;;
735;SDS011;352;48.626;9.238;2023-05-31T01:50:35;3.57;;;2.93;;
735;SDS011;352;48.626;9.238;2023-05-31T01:53:02;2.93;;;2.63;;
735;SDS011;352;48.626;9.238;2023-05-31T01:55:29;6.03;;;2.60;;
735;SDS011;352;48.626;9.238;2023-05-31T01:57:56;5.00;;;2.73;;
735;SDS011;352;48.626;9.238;2023-05-31T02:00:25;3.40;;;3.00;;
735;SDS011;352;48.626;9.238;2023-05-31T02:02:53;2.97;;;2.77;;
735;SDS011;352;48.626;9.238;2023-05-31T02:05:20;3.77;;;2.87;;
735;SDS011;352;48.626;9.238;2023-05-31T02:07:47;4.60;;;3.03;;
735;SDS011;352;48.626;9.238;2023-05-31T02:10:15;2.90;;;2.70;;
735;SDS011;352;48.626;9.238;2023-05-31T02:12:42;3.93;;;2.87;;
735;SDS011;352;48.626;9.238;2023-05-31T02:15:09;3.70;;;2.57;;
735;SDS011;352;48.626;9.238;2023-05-31T02:17:37;4.03;;;2.87;;
735;SDS011;352;48.626;9.238;2023-05-31T02:20:07;4.80;;;3.10;;
735;SDS011;352;48.626;9.238;2023-05-31T02:22:37;4.33;;;2.83;;
735;SDS011;352;48.626;9.238;2023-05-31T02:25:05;3.00;;;2.70;;
735;SDS011;352;48.626;9.238;2023-05-31T02:27:33;3.73;;;2.97;;
735;SDS011;352;48.626;9.238;2023-05-31T02:30:00;5.90;;;3.20;;
735;SDS011;352;48.626;9.238;2023-05-31T02:32:27;5.10;;;2.97;;
735;SDS011;352;48.626;9.238;2023-05-31T02:34:54;4.93;;;3.10;;
735;SDS011;352;48.626;9.238;2023-05-31T02:37:22;3.40;;;2.80;;
735;SDS011;352;48.626;9.238;2023-05-31T02:39:48;4.40;;;2.93;;
735;SDS011;352;48.626;9.238;2023-05-31T02:42:18;3.43;;;3.23;;
735;SDS011;352;48.626;9.238;2023-05-31T02:44:45;3.00;;;2.70;;
735;SDS011;352;48.626;9.238;2023-05-31T02:47:12;5.43;;;3.07;;
735;SDS011;352;48.626;9.238;2023-05-31T02:49:39;4.60;;;3.30;;
735;SDS011;352;48.626;9.238;2023-05-31T02:52:06;3.50;;;2.97;;
735;SDS011;352;48.626;9.238;2023-05-31T02:54:34;3.10;;;2.30;;
735;SDS011;352;48.626;9.238;2023-05-31T02:57:01;5.77;;;3.20;;
735;SDS011;352;48.626;9.238;2023-05-31T02:59:29;5.90;;;3.00;;
735;SDS011;352;48.626;9.238;2023-05-31T03:01:56;4.13;;;2.53;;
735;SDS011;352;48.626;9.238;2023-05-31T03:04:23;6.97;;;3.57;;
735;SDS011;352;48.626;9.238;2023-05-31T03:06:50;5.20;;;3.23;;
735;SDS011;352;48.626;9.238;2023-05-31T03:09:17;3.03;;;2.50;;
735;SDS011;352;48.626;9.238;2023-05-31T03:11:45;4.73;;;3.17;;
735;SDS011;352;48.626;9.238;2023-05-31T03:14:12;3.40;;;3.10;;
735;SDS011;352;48.626;9.238;2023-05-31T03:16:39;3.40;;;2.70;;
735;SDS011;352;48.626;9.238;2023-05-31T03:19:06;3.27;;;2.93;;
735;SDS011;352;48.626;9.238;2023-05-31T03:21:33;6.20;;;3.30;;
735;SDS011;352;48.626;9.238;2023-05-31T03:24:00;6.40;;;3.70;;
735;SDS011;352;48.626;9.238;2023-05-31T03:26:27;6.03;;;3.00;;
735;SDS011;352;48.626;9.238;2023-05-31T03:28:55;5.57;;;3.27;;
735;SDS011;352;48.626;9.238;2023-05-31T03:31:22;3.57;;;3.27;;
735;SDS011;352;48.626;9.238;2023-05-31T03:33:49;3.30;;;2.70;;
735;SDS011;352;48.626;9.238;2023-05-31T03:36:16;5.70;;;3.10;;
735;SDS011;352;48.626;9.238;2023-05-31T03:38:43;6.53;;;2.97;;
735;SDS011;352;48.626;9.238;2023-05-31T03:41:09;3.23;;;2.93;;
735;SDS011;352;48.626;9.238;2023-05-31T03:43:36;3.40;;;2.83;;
735;SDS011;352;48.626;9.238;2023-05-31T03:46:05;2.80;;;2.60;;
735;SDS011;352;48.626;9.238;2023-05-31T03:48:31;5.10;;;2.90;;
735;SDS011;352;48.626;9.238;2023-05-31T03:50:58;3.53;;;2.70;;
735;SDS011;352;48.626;9.238;2023-05-31T03:53:25;2.70;;;2.50;;
735;SDS011;352;48.626;9.238;2023-05-31T03:55:51;3.40;;;2.93;;
735;SDS011;352;48.626;9.238;2023-05-31T03:58:18;6.80;;;3.03;;
735;SDS011;352;48.626;9.238;2023-05-31T04:00:45;2.83;;;2.33;;
735;SDS011;352;48.626;9.238;2023-05-31T04:03:13;4.53;;;2.67;;
735;SDS011;352;48.626;9.238;2023-05-31T04:05:40;4.43;;;4.07;;
735;SDS011;352;48.626;9.238;2023-05-31T04:08:07;4.27;;;3.00;;
735;SDS011;352;48.626;9.238;2023-05-31T04:10:34;3.83;;;3.20;;
735;SDS011;352;48.626;9.238;2023-05-31T04:13:01;7.60;;;3.00;;
735;SDS011;352;48.626;9.238;2023-05-31T04:15:27;5.13;;;3.13;;
735;SDS011;352;48.626;9.238;2023-05-31T04:17:55;4.10;;;2.60;;
735;SDS011;352;48.626;9.238;2023-05-31T04:20:23;4.70;;;3.00;;
735;SDS011;352;48.626;9.238;2023-05-31T04:22:49;3.63;;;2.67;;
735;SDS011;352;48.626;9.238;2023-05-31T04:25:17;3.57;;;2.60;;
735;SDS011;352;48.626;9.238;2023-05-31T04:27:45;6.37;;;4.20;;
735;SDS011;352;48.626;9.238;2023-05-31T04:30:12;4.43;;;2.97;;
735;SDS011;352;48.626;9.238;2023-05-31T04:32:39;3.20;;;2.90;;
735;SDS011;352;48.626;9.238;2023-05-31T04:35:06;3.20;;;2.73;;
735;SDS011;352;48.626;9.238;2023-05-31T04:37:35;4.30;;;3.00;;
735;SDS011;352;48.626;9.238;2023-05-31T04:40:02;6.27;;;2.93;;
735;SDS011;352;48.626;9.238;2023-05-31T04:42:30;4.97;;;3.37;;
735;SDS011;352;48.626;9.238;2023-05-31T04:44:57;4.73;;;2.80;;
735;SDS011;352;48.626;9.238;2023-05-31T04:47:26;4.50;;;3.90;;
735;SDS011;352;48.626;9.238;2023-05-31T04:49:53;3.10;;;2.77;;
735;SDS011;352;48.626;9.238;2023-05-31T04:52:22;3.50;;;3.10;;
735;SDS011;352;48.626;9.238;2023-05-31T04:54:52;4.60;;;2.73;;
735;SDS011;352;48.626;9.238;2023-05-31T04:57:19;4.20;;;2.63;;
735;SDS011;352;48.626;9.238;2023-05-31T04:59:46;7.13;;;3.20;;
735;SDS011;352;48.626;9.238;2023-05-31T05:02:13;3.33;;;3.00;;
735;SDS011;352;48.626;9.238;2023-05-31T05:04:40;4.73;;;3.20;;
735;SDS011;352;48.626;9.238;2023-05-31T05:07:07;3.63;;;3.20;;
735;SDS011;352;48.626;9.238;2023-05-31T05:09:33;3.47;;;3.17;;
735;SDS011;352;48.626;9.238;2023-05-31T05:12:02;5.77;;;2.90;;
735;SDS011;352;48.626;9.238;2023-05-31T05:14:30;4.60;;;3.10;;
735;SDS011;352;48.626;9.238;2023-05-31T05:16:57;5.60;;;3.13;;
735;SDS011;352;48.626;9.238;2023-05-31T05:19:24;3.87;;;3.43;;
735;SDS011;352;48.626;9.238;2023-05-31T05:21:51;4.00;;;3.60;;
735;SDS011;352;48.626;9.238;2023-05-31T05:24:17;4.37;;;3.33;;
735;SDS011;352;48.626;9.238;2023-05-31T05:26:45;8.47;;;4.10;;
735;SDS011;352;48.626;9.238;2023-05-31T05:29:13;4.43;;;3.77;;
735;SDS011;352;48.626;9.238;2023-05-31T05:31:40;4.40;;;4.00;;
735;SDS011;352;48.626;9.238;2023-05-31T05:34:06;5.83;;;3.63;;
735;SDS011;352;48.626;9.238;2023-05-31T05:36:34;7.20;;;3.60;;
735;SDS011;352;48.626;9.238;2023-05-31T05:39:01;4.53;;;3.67;;
735;SDS011;352;48.626;9.238;2023-05-31T05:41:31;4.17;;;3.77;;
735;SDS011;352;48.626;9.238;2023-05-31T05:44:00;5.53;;;4.00;;
735;SDS011;352;48.626;9.238;2023-05-31T05:46:28;4.93;;;4.00;;
735;SDS011;352;48.626;9.238;2023-05-31T05:48:55;4.30;;;3.90;;
735;SDS011;352;48.626;9.238;2023-05-31T05:51:22;4.37;;;3.97;;
735;SDS011;352;48.626;9.238;2023-05-31T05:53:49;4.20;;;3.90;;
735;SDS011;352;48.626;9.238;2023-05-31T05:56:15;10.03;;;3.93;;
735;SDS011;352;48.626;9.238;2023-05-31T05:58:43;4.50;;;4.20;;
735;SDS011;352;48.626;9.238;2023-05-31T06:01:11;5.10;;;4.30;;
735;SDS011;352;48.626;9.238;2023-05-31T06:03:44;4.00;;;3.50;;
735;SDS011;352;48.626;9.238;2023-05-31T06:06:12;5.23;;;3.67;;
735;SDS011;352;48.626;9.238;2023-05-31T06:08:39;5.63;;;4.30;;
735;SDS011;352;48.626;9.238;2023-05-31T06:11:06;5.80;;;4.20;;
735;SDS011;352;48.626;9.238;2023-05-31T06:13:33;6.37;;;3.93;;
735;SDS011;352;48.626;9.238;2023-05-31T06:15:59;5.70;;;4.70;;
735;SDS011;352;48.626;9.238;2023-05-31T06:18:28;4.10;;;3.90;;
735;SDS011;352;48.626;9.238;2023-05-31T06:20:56;3.77;;;3.47;;
735;SDS011;352;48.626;9.238;2023-05-31T06:23:23;5.23;;;4.33;;
735;SDS011;352;48.626;9.238;2023-05-31T06:25:49;4.83;;;4.33;;
735;SDS011;352;48.626;9.238;2023-05-31T06:28:17;6.77;;;4.60;;
735;SDS011;352;48.626;9.238;2023-05-31T06:30:44;4.57;;;3.87;;
735;SDS011;352;48.626;9.238;2023-05-31T06:33:11;6.80;;;4.40;;
735;SDS011;352;48.626;9.238;2023-05-31T06:35:38;5.40;;;4.17;;
735;SDS011;352;48.626;9.238;2023-05-31T06:38:07;4.50;;;4.20;;
735;SDS011;352;48.626;9.238;2023-05-31T06:40:39;4.70;;;4.30;;
735;SDS011;352;48.626;9.238;2023-05-31T06:43:06;4.90;;;4.50;;
735;SDS011;352;48.626;9.238;2023-05-31T06:45:33;5.30;;;4.30;;
735;SDS011;352;48.626;9.238;2023-05-31T06:48:00;4.97;;;4.53;;
735;SDS011;352;48.626;9.238;2023-05-31T06:50:26;5.70;;;4.83;;
735;SDS011;352;48.626;9.238;2023-05-31T06:52:53;6.20;;;4.17;;
735;SDS011;352;48.626;9.238;2023-05-31T06:55:21;4.83;;;4.43;;
735;SDS011;352;48.626;9.238;2023-05-31T06:57:48;7.87;;;4.97;;
735;SDS011;352;48.626;9.238;2023-05-31T07:00:15;4.63;;;4.30;;
735;SDS011;352;48.626;9.238;2023-05-31T07:02:42;4.33;;;4.00;;
735;SDS011;352;48.626;9.238;2023-05-31T07:05:13;4.67;;;4.23;;
735;SDS011;352;48.626;9.238;2023-05-31T07:07:39;8.70;;;5.17;;
735;SDS011;352;48.626;9.238;2023-05-31T07:10:07;4.90;;;4.47;;
735;SDS011;352;48.626;9.238;2023-05-31T07:12:35;4.33;;;4.03;;
735;SDS011;352;48.626;9.238;2023-05-31T07:15:02;6.70;;;4.47;;
735;SDS011;352;48.626;9.238;2023-05-31T07:17:30;4.63;;;4.23;;
735;SDS011;352;48.626;9.238;2023-05-31T07:19:57;3.90;;;3.70;;
735;SDS011;352;48.626;9.238;2023-05-31T07:22:23;7.97;;;4.73;;
735;SDS011;352;48.626;9.238;2023-05-31T07:24:50;4.83;;;4.47;;
735;SDS011;352;48.626;9.238;2023-05-31T07:27:18;7.83;;;5.30;;
735;SDS011;352;48.626;9.238;2023-05-31T07:29:46;4.57;;;4.17;;
735;SDS011;352;48.626;9.238;2023-05-31T07:32:13;4.57;;;4.27;;
735;SDS011;352;48.626;9.238;2023-05-31T07:34:40;4.90;;;4.50;;
735;SDS011;352;48.626;9.238;2023-05-31T07:37:06;6.47;;;4.70;;
735;SDS011;352;48.626;9.238;2023-05-31T07:39:33;5.07;;;4.70;;
735;SDS011;352;48.626;9.238;2023-05-31T07:42:00;6.50;;;4.80;;
735;SDS011;352;48.626;9.238;2023-05-31T07:44:27;5.43;;;4.30;;
735;SDS011;352;48.626;9.238;2023-05-31T07:46:55;5.67;;;5.00;;
735;SDS011;352;48.626;9.238;2023-05-31T07:49:21;5.40;;;5.10;;
735;SDS011;352;48.626;9.238;2023-05-31T07:51:48;7.50;;;4.87;;
735;SDS011;352;48.626;9.238;2023-05-31T07:54:15;5.70;;;4.70;;
735;SDS011;352;48.626;9.238;2023-05-31T07:56:42;5.93;;;4.43;;
735;SDS011;352;48.626;9.238;2023-05-31T07:59:09;5.30;;;4.80;;
735;SDS011;352;48.626;9.238;2023-05-31T08:01:36;8.10;;;4.77;;
735;SDS011;352;48.626;9.238;2023-05-31T08:04:08;7.10;;;4.40;;
735;SDS011;352;48.626;9.238;2023-05-31T08:06:36;6.83;;;4.00;;
735;SDS011;352;48.626;9.238;2023-05-31T08:09:03;4.30;;;4.00;;
735;SDS011;352;48.626;9.238;2023-05-31T08:11:31;4.20;;;3.90;;
735;SDS011;352;48.626;9.238;2023-05-31T08:14:00;8.77;;;4.83;;
735;SDS011;352;48.626;9.238;2023-05-31T08:16:27;4.90;;;4.50;;
735;SDS011;352;48.626;9.238;2023-05-31T08:18:54;4.47;;;4.07;;
735;SDS011;352;48.626;9.238;2023-05-31T08:21:22;6.93;;;4.43;;
735;SDS011;352;48.626;9.238;2023-05-31T08:23:49;4.90;;;4.27;;
735;SDS011;352;48.626;9.238;2023-05-31T08:26:16;6.03;;;4.20;;
735;SDS011;352;48.626;9.238;2023-05-31T08:28:42;6.47;;;4.33;;
735;SDS011;352;48.626;9.238;2023-05-31T08:31:10;5.07;;;4.60;;
735;SDS011;352;48.626;9.238;2023-05-31T08:33:36;8.30;;;5.47;;
735;SDS011;352;48.626;9.238;2023-05-31T08:36:05;5.47;;;4.67;;
735;SDS011;352;48.626;9.238;2023-05-31T08:38:33;4.60;;;4.30;;
735;SDS011;352;48.626;9.238;2023-05-31T08:41:01;5.53;;;5.00;;
735;SDS011;352;48.626;9.238;2023-05-31T08:43:29;5.00;;;4.60;;
735;SDS011;352;48.626;9.238;2023-05-31T08:45:57;6.83;;;4.57;;
735;SDS011;352;48.626;9.238;2023-05-31T08:48:26;4.87;;;4.40;;
735;SDS011;352;48.626;9.238;2023-05-31T08:50:56;5.27;;;4.73;;
735;SDS011;352;48.626;9.238;2023-05-31T08:53:25;5.13;;;4.57;;
735;SDS011;352;48.626;9.238;2023-05-31T08:55:54;5.47;;;4.47;;
735;SDS011;352;48.626;9.238;2023-05-31T08:58:20;4.80;;;4.37;;
735;SDS011;352;48.626;9.238;2023-05-31T09:00:48;5.37;;;4.87;;
735;SDS011;352;48.626;9.238;2023-05-31T09:03:15;5.03;;;4.63;;
735;SDS011;352;48.626;9.238;2023-05-31T09:05:42;6.53;;;5.20;;
735;SDS011;352;48.626;9.238;2023-05-31T09:08:09;4.80;;;4.40;;
735;SDS011;352;48.626;9.238;2023-05-31T09:10:36;5.77;;;5.30;;
735;SDS011;352;48.626;9.238;2023-05-31T09:13:04;4.90;;;4.50;;
735;SDS011;352;48.626;9.238;2023-05-31T09:15:32;8.90;;;5.47;;
735;SDS011;352;48.626;9.238;2023-05-31T09:18:11;5.43;;;4.67;;
735;SDS011;352;48.626;9.238;2023-05-31T09:20:39;4.80;;;4.40;;
735;SDS011;352;48.626;9.238;2023-05-31T09:23:07;5.70;;;5.00;;
735;SDS011;352;48.626;9.238;2023-05-31T09:25:44;5.83;;;4.57;;
735;SDS011;352;48.626;9.238;2023-05-31T09:28:13;5.60;;;5.10;;
735;SDS011;352;48.626;9.238;2023-05-31T09:30:40;6.30;;;4.70;;
735;SDS011;352;48.626;9.238;2023-05-31T09:33:07;5.23;;;4.77;;
735;SDS011;352;48.626;9.238;2023-05-31T09:35:35;11.30;;;8.00;;
735;SDS011;352;48.626;9.238;2023-05-31T09:38:05;5.10;;;4.63;;
735;SDS011;352;48.626;9.238;2023-05-31T09:40:33;7.00;;;4.87;;
735;SDS011;352;48.626;9.238;2023-05-31T09:43:00;5.00;;;4.57;;
735;SDS011;352;48.626;9.238;2023-05-31T09:45:28;4.97;;;4.57;;
735;SDS011;352;48.626;9.238;2023-05-31T09:47:55;5.23;;;4.40;;
735;SDS011;352;48.626;9.238;2023-05-31T09:50:22;5.00;;;4.30;;
735;SDS011;352;48.626;9.238;2023-05-31T09:52:54;4.40;;;3.90;;
735;SDS011;352;48.626;9.238;2023-05-31T09:55:22;4.67;;;4.27;;
735;SDS011;352;48.626;9.238;2023-05-31T09:57:50;5.00;;;4.70;;
735;SDS011;352;48.626;9.238;2023-05-31T10:00:18;5.57;;;4.00;;
735;SDS011;352;48.626;9.238;2023-05-31T10:02:47;4.33;;;3.93;;
735;SDS011;352;48.626;9.238;2023-05-31T10:05:15;6.50;;;4.40;;
735;SDS011;352;48.626;9.238;2023-05-31T10:07:44;4.97;;;4.57;;
735;SDS011;352;48.626;9.238;2023-05-31T10:10:12;5.40;;;3.97;;
735;SDS011;352;48.626;9.238;2023-05-31T10:12:42;4.40;;;3.93;;
735;SDS011;352;48.626;9.238;2023-05-31T10:15:14;4.60;;;4.10;;
735;SDS011;352;48.626;9.238;2023-05-31T10:17:45;5.33;;;4.37;;
735;SDS011;352;48.626;9.238;2023-05-31T10:20:18;6.50;;;4.10;;
735;SDS011;352;48.626;9.238;2023-05-31T10:22:45;4.80;;;3.97;;
735;SDS011;352;48.626;9.238;2023-05-31T10:25:18;6.57;;;4.50;;
735;SDS011;352;48.626;9.238;2023-05-31T10:27:50;11.00;;;4.50;;
735;SDS011;352;48.626;9.238;2023-05-31T10:30:19;5.27;;;4.30;;
735;SDS011;352;48.626;9.238;2023-05-31T10:32:53;4.80;;;4.40;;
735;SDS011;352;48.626;9.238;2023-05-31T10:35:25;4.47;;;4.10;;
735;SDS011;352;48.626;9.238;2023-05-31T10:37:52;4.90;;;4.47;;
735;SDS011;352;48.626;9.238;2023-05-31T10:40:21;5.80;;;4.47;;
735;SDS011;352;48.626;9.238;2023-05-31T10:42:52;4.83;;;4.30;;
735;SDS011;352;48.626;9.238;2023-05-31T10:45:25;4.43;;;4.03;;
735;SDS011;352;48.626;9.238;2023-05-31T10:47:56;5.63;;;4.30;;
735;SDS011;352;48.626;9.238;2023-05-31T10:50:28;7.03;;;4.60;;
735;SDS011;352;48.626;9.238;2023-05-31T10:53:08;5.77;;;4.00;;
735;SDS011;352;48.626;9.238;2023-05-31T10:55:40;3.80;;;3.50;;
735;SDS011;352;48.626;9.238;2023-05-31T10:58:10;5.40;;;4.00;;
735;SDS011;352;48.626;9.238;2023-05-31T11:00:52;7.90;;;4.40;;
735;SDS011;352;48.626;9.238;2023-05-31T11:03:22;7.10;;;3.77;;
735;SDS011;352;48.626;9.238;2023-05-31T11:05:55;3.57;;;3.27;;
735;SDS011;352;48.626;9.238;2023-05-31T11:08:24;6.97;;;3.97;;
735;SDS011;352;48.626;9.238;2023-05-31T11:10:51;3.93;;;3.50;;
735;SDS011;352;48.626;9.238;2023-05-31T11:13:18;6.13;;;4.10;;
735;SDS011;352;48.626;9.238;2023-05-31T11:15:45;5.20;;;3.67;;
735;SDS011;352;48.626;9.238;2023-05-31T11:18:22;3.77;;;3.47;;
735;SDS011;352;48.626;9.238;2023-05-31T11:20:49;3.83;;;3.47;;
735;SDS011;352;48.626;9.238;2023-05-31T11:23:22;4.17;;;3.60;;
735;SDS011;352;48.626;9.238;2023-05-31T11:28:53;5.60;;;3.90;;
735;SDS011;352;48.626;9.238;2023-05-31T11:34:28;3.90;;;3.60;;
735;SDS011;352;48.626;9.238;2023-05-31T11:36:58;4.30;;;3.90;;
735;SDS011;352;48.626;9.238;2023-05-31T11:39:26;4.63;;;3.67;;
735;SDS011;352;48.626;9.238;2023-05-31T11:41:53;4.80;;;4.10;;
735;SDS011;352;48.626;9.238;2023-05-31T11:44:21;4.00;;;3.60;;
735;SDS011;352;48.626;9.238;2023-05-31T11:47:04;4.90;;;4.20;;
735;SDS011;352;48.626;9.238;2023-05-31T11:49:33;6.63;;;4.63;;
735;SDS011;352;48.626;9.238;2023-05-31T11:52:00;4.47;;;4.00;;
735;SDS011;352;48.626;9.238;2023-05-31T11:54:28;4.50;;;4.10;;
735;SDS011;352;48.626;9.238;2023-05-31T11:56:58;5.70;;;4.10;;
735;SDS011;352;48.626;9.238;2023-05-31T11:59:26;4.13;;;3.83;;
735;SDS011;352;48.626;9.238;2023-05-31T12:01:56;3.90;;;3.60;;
735;SDS011;352;48.626;9.238;2023-05-31T12:04:27;4.30;;;4.00;;
735;SDS011;352;48.626;9.238;2023-05-31T12:07:00;5.40;;;3.80;;
735;SDS011;352;48.626;9.238;2023-05-31T12:09:27;4.70;;;4.30;;
735;SDS011;352;48.626;9.238;2023-05-31T12:11:54;5.47;;;3.80;;
735;SDS011;352;48.626;9.238;2023-05-31T12:14:22;4.30;;;3.90;;
735;SDS011;352;48.626;9.238;2023-05-31T12:16:50;4.00;;;3.47;;
735;SDS011;352;48.626;9.238;2023-05-31T12:19:17;5.27;;;4.00;;
735;SDS011;352;48.626;9.238;2023-05-31T12:21:46;4.43;;;3.67;;
735;SDS011;352;48.626;9.238;2023-05-31T12:24:14;3.90;;;3.50;;
735;SDS011;352;48.626;9.238;2023-05-31T12:26:41;4.13;;;3.80;;
735;SDS011;352;48.626;9.238;2023-05-31T12:29:10;6.10;;;4.13;;
735;SDS011;352;48.626;9.238;2023-05-31T12:31:38;5.13;;;4.03;;
735;SDS011;352;48.626;9.238;2023-05-31T12:34:05;5.50;;;4.40;;
735;SDS011;352;48.626;9.238;2023-05-31T12:36:36;5.80;;;4.97;;
735;SDS011;352;48.626;9.238;2023-05-31T12:39:07;4.23;;;3.93;;
735;SDS011;352;48.626;9.238;2023-05-31T12:41:36;4.47;;;4.07;;
735;SDS011;352;48.626;9.238;2023-05-31T12:44:05;3.90;;;3.70;;
735;SDS011;352;48.626;9.238;2023-05-31T12:46:36;4.43;;;3.93;;
735;SDS011;352;48.626;9.238;2023-05-31T12:49:11;4.40;;;4.10;;
735;SDS011;352;48.626;9.238;2023-05-31T12:51:39;5.10;;;4.70;;
735;SDS011;352;48.626;9.238;2023-05-31T12:54:12;4.70;;;4.37;;
735;SDS011;352;48.626;9.238;2023-05-31T12:56:39;5.60;;;4.50;;
735;SDS011;352;48.626;9.238;2023-05-31T12:59:06;4.93;;;4.43;;
735;SDS011;352;48.626;9.238;2023-05-31T13:01:33;5.40;;;4.43;;
735;SDS011;352;48.626;9.238;2023-05-31T13:04:00;5.63;;;4.20;;
735;SDS011;352;48.626;9.238;2023-05-31T13:06:27;4.50;;;4.10;;
735;SDS011;352;48.626;9.238;2023-05-31T13:08:54;4.53;;;4.13;;
735;SDS011;352;48.626;9.238;2023-05-31T13:11:22;4.27;;;3.87;;
735;SDS011;352;48.626;9.238;2023-05-31T13:13:48;4.77;;;4.20;;
735;SDS011;352;48.626;9.238;2023-05-31T13:16:15;4.03;;;3.73;;
735;SDS011;352;48.626;9.238;2023-05-31T13:18:42;4.80;;;3.77;;
735;SDS011;352;48.626;9.238;2023-05-31T13:21:09;4.00;;;3.70;;
735;SDS011;352;48.626;9.238;2023-05-31T13:23:36;4.30;;;3.80;;
735;SDS011;352;48.626;9.238;2023-05-31T13:26:02;5.10;;;4.40;;
735;SDS011;352;48.626;9.238;2023-05-31T13:28:31;4.90;;;3.87;;
735;SDS011;352;48.626;9.238;2023-05-31T13:30:57;4.37;;;4.00;;
735;SDS011;352;48.626;9.238;2023-05-31T13:33:24;8.80;;;4.40;;
735;SDS011;352;48.626;9.238;2023-05-31T13:35:53;5.30;;;4.37;;
735;SDS011;352;48.626;9.238;2023-05-31T13:38:21;4.53;;;3.97;;
735;SDS011;352;48.626;9.238;2023-05-31T13:40:48;4.53;;;4.10;;
735;SDS011;352;48.626;9.238;2023-05-31T13:43:15;4.43;;;3.80;;
735;SDS011;352;48.626;9.238;2023-05-31T13:45:44;4.40;;;4.10;;
735;SDS011;352;48.626;9.238;2023-05-31T13:48:11;4.43;;;3.97;;
735;SDS011;352;48.626;9.238;2023-05-31T13:50:39;4.30;;;3.90;;
735;SDS011;352;48.626;9.238;2023-05-31T13:53:06;4.00;;;3.70;;
735;SDS011;352;48.626;9.238;2023-05-31T13:55:34;9.23;;;4.20;;
735;SDS011;352;48.626;9.238;2023-05-31T13:58:00;5.10;;;3.80;;
735;SDS011;352;48.626;9.238;2023-05-31T14:00:27;4.67;;;3.90;;
735;SDS011;352;48.626;9.238;2023-05-31T14:02:56;3.80;;;3.50;;
735;SDS011;352;48.626;9.238;2023-05-31T14:05:23;4.20;;;3.80;;
735;SDS011;352;48.626;9.238;2023-05-31T14:07:51;4.47;;;4.07;;
735;SDS011;352;48.626;9.238;2023-05-31T14:10:17;6.53;;;4.40;;
735;SDS011;352;48.626;9.238;2023-05-31T14:12:44;4.37;;;4.00;;
735;SDS011;352;48.626;9.238;2023-05-31T14:15:11;4.40;;;3.83;;
735;SDS011;352;48.626;9.238;2023-05-31T14:17:38;3.80;;;3.60;;
735;SDS011;352;48.626;9.238;2023-05-31T14:20:07;3.77;;;3.47;;
735;SDS011;352;48.626;9.238;2023-05-31T14:22:36;5.73;;;4.17;;
735;SDS011;352;48.626;9.238;2023-05-31T14:25:03;5.70;;;3.53;;
735;SDS011;352;48.626;9.238;2023-05-31T14:27:30;4.00;;;3.20;;
735;SDS011;352;48.626;9.238;2023-05-31T14:29:57;4.10;;;3.47;;
735;SDS011;352;48.626;9.238;2023-05-31T14:32:24;7.03;;;3.63;;
735;SDS011;352;48.626;9.238;2023-05-31T14:34:51;3.63;;;3.33;;
735;SDS011;352;48.626;9.238;2023-05-31T14:37:19;3.57;;;3.13;;
735;SDS011;352;48.626;9.238;2023-05-31T14:39:45;3.80;;;3.40;;
735;SDS011;352;48.626;9.238;2023-05-31T14:42:12;3.50;;;3.20;;
735;SDS011;352;48.626;9.238;2023-05-31T14:44:39;3.63;;;3.20;;
735;SDS011;352;48.626;9.238;2023-05-31T14:47:06;3.80;;;3.43;;
735;SDS011;352;48.626;9.238;2023-05-31T14:49:32;4.00;;;3.40;;
735;SDS011;352;48.626;9.238;2023-05-31T14:52:02;5.10;;;4.67;;
735;SDS011;352;48.626;9.238;2023-05-31T14:54:30;5.33;;;3.17;;
735;SDS011;352;48.626;9.238;2023-05-31T14:56:57;4.67;;;3.30;;
735;SDS011;352;48.626;9.238;2023-05-31T14:59:23;3.10;;;2.83;;
735;SDS011;352;48.626;9.238;2023-05-31T15:01:53;7.80;;;3.40;;
735;SDS011;352;48.626;9.238;2023-05-31T15:04:22;4.33;;;3.10;;
735;SDS011;352;48.626;9.238;2023-05-31T15:06:50;5.73;;;3.30;;
735;SDS011;352;48.626;9.238;2023-05-31T15:09:17;3.97;;;3.43;;
735;SDS011;352;48.626;9.238;2023-05-31T15:11:46;4.60;;;3.27;;
735;SDS011;352;48.626;9.238;2023-05-31T15:14:13;5.40;;;3.20;;
735;SDS011;352;48.626;9.238;2023-05-31T15:16:40;3.37;;;3.07;;
735;SDS011;352;48.626;9.238;2023-05-31T15:19:07;4.30;;;3.40;;
735;SDS011;352;48.626;9.238;2023-05-31T15:21:34;3.90;;;3.60;;
735;SDS011;352;48.626;9.238;2023-05-31T15:24:01;4.80;;;3.20;;
735;SDS011;352;48.626;9.238;2023-05-31T15:26:28;3.57;;;3.10;;
735;SDS011;352;48.626;9.238;2023-05-31T15:28:56;3.60;;;3.30;;
735;SDS011;352;48.626;9.238;2023-05-31T15:31:23;3.37;;;2.87;;
735;SDS011;352;48.626;9.238;2023-05-31T15:33:50;5.30;;;3.83;;
735;SDS011;352;48.626;9.238;2023-05-31T15:36:17;3.63;;;3.10;;
735;SDS011;352;48.626;9.238;2023-05-31T15:38:44;4.07;;;3.67;;
735;SDS011;352;48.626;9.238;2023-05-31T15:41:11;4.33;;;3.47;;
735;SDS011;352;48.626;9.238;2023-05-31T15:43:38;5.20;;;3.60;;
735;SDS011;352;48.626;9.238;2023-05-31T15:46:06;4.57;;;3.60;;
735;SDS011;352;48.626;9.238;2023-05-31T15:48:32;3.60;;;3.30;;
735;SDS011;352;48.626;9.238;2023-05-31T15:50:59;4.07;;;3.10;;
735;SDS011;352;48.626;9.238;2023-05-31T15:53:28;3.40;;;3.10;;
735;SDS011;352;48.626;9.238;2023-05-31T15:55:55;5.20;;;3.57;;
735;SDS011;352;48.626;9.238;2023-05-31T15:58:21;4.47;;;3.70;;